createdAt,value
2022-09-18T00:00:41.561Z,100061.38
2022-09-18T00:03:18.168Z,100061.88
2022-09-18T00:06:09.487Z,100058.38
2022-09-18T00:08:49.854Z,100059.56
2022-09-18T00:11:31.769Z,100062.63
2022-09-18T00:14:05.754Z,100056.19
2022-09-18T00:16:37.951Z,100050.72
2022-09-18T00:19:10.435Z,100052.44
2022-09-18T00:22:01.853Z,100053.09
2022-09-18T00:24:45.796Z,100060.69
2022-09-18T00:27:20.712Z,100054.94
2022-09-18T00:30:06.046Z,100048.22
2022-09-18T00:32:47.568Z,100057.72
2022-09-18T00:35:16.851Z,100070.81
2022-09-18T00:38:12.470Z,100074.69
2022-09-18T00:41:05.105Z,100075.91
2022-09-18T00:43:37.004Z,100080.03
2022-09-18T00:46:29.713Z,100072.22
2022-09-18T00:49:17.142Z,100078.97
2022-09-18T00:51:49.940Z,100075.44
2022-09-18T00:54:29.812Z,100071.25
2022-09-18T00:57:13.524Z,100072.50
2022-09-18T01:00:02.392Z,100077.56
2022-09-18T01:02:45.627Z,100076.63
2022-09-18T01:05:33.033Z,100078.44
2022-09-18T01:08:44.093Z,100083.41
2022-09-18T01:11:39.625Z,100087.16
2022-09-18T01:14:30.448Z,100081.19
2022-09-18T01:17:27.994Z,100082.84
2022-09-18T01:20:58.381Z,100089.72
2022-09-18T01:24:29.182Z,100084.69
2022-09-18T01:27:20.294Z,100081.91
2022-09-18T01:30:21.652Z,100085.47
2022-09-18T01:33:13.233Z,100081.16
2022-09-18T01:36:17.883Z,100095.13
2022-09-18T01:39:06.945Z,100084.75
2022-09-18T01:41:56.909Z,100091.56
2022-09-18T01:44:37.456Z,100090.56
2022-09-18T01:47:21.604Z,100096.69
2022-09-18T01:50:07.819Z,100103.63
2022-09-18T01:52:55.142Z,100098.34
2022-09-18T01:55:30.190Z,100106.94
2022-09-18T01:58:13.708Z,100102.59
2022-09-18T02:00:55.306Z,100107.09
2022-09-18T02:03:42.914Z,100100.78
2022-09-18T02:06:17.468Z,100098.16
2022-09-18T02:08:50.364Z,100103.44
2022-09-18T02:11:21.501Z,100106.16
2022-09-18T02:13:57.462Z,100106.94
2022-09-18T02:16:33.080Z,100105.88
2022-09-18T02:19:11.776Z,100108.41
2022-09-18T02:21:43.791Z,100099.09
2022-09-18T02:24:16.309Z,100101.59
2022-09-18T02:26:48.781Z,100103.66
2022-09-18T02:29:21.038Z,100110.47
2022-09-18T02:31:50.454Z,100110.38
2022-09-18T02:34:21.583Z,100109.53
2022-09-18T02:37:10.485Z,100109.50
2022-09-18T02:39:59.500Z,100110.47
2022-09-18T02:42:43.012Z,100106.91
2022-09-18T02:45:27.216Z,100105.44
2022-09-18T02:48:15.621Z,100113.19
2022-09-18T02:51:00.560Z,100113.19
2022-09-18T02:53:37.939Z,100116.66
2022-09-18T02:56:11.256Z,100118.31
2022-09-18T02:58:48.038Z,100122.50
2022-09-18T03:01:18.506Z,100122.56
2022-09-18T03:03:49.172Z,100131.22
2022-09-18T03:06:18.868Z,100129.19
2022-09-18T03:08:47.043Z,100133.56
2022-09-18T03:11:14.813Z,100135.34
2022-09-18T03:13:42.590Z,100140.38
2022-09-18T03:16:10.413Z,100146.59
2022-09-18T03:18:38.283Z,100144.13
2022-09-18T03:21:07.127Z,100144.00
2022-09-18T03:23:36.198Z,100139.75
2022-09-18T03:26:04.154Z,100143.06
2022-09-18T03:28:32.567Z,100147.53
2022-09-18T03:31:00.554Z,100151.78
2022-09-18T03:33:28.330Z,100150.88
2022-09-18T03:35:56.116Z,100148.13
2022-09-18T03:38:23.873Z,100157.78
2022-09-18T03:40:52.979Z,100162.19
2022-09-18T03:43:20.743Z,100163.91
2022-09-18T03:45:48.990Z,100163.94
2022-09-18T03:48:16.836Z,100172.53
2022-09-18T03:50:44.614Z,100165.66
2022-09-18T03:53:12.417Z,100169.06
2022-09-18T03:55:40.293Z,100169.00
2022-09-18T03:58:09.420Z,100174.91
2022-09-18T04:00:37.249Z,100170.72
2022-09-18T04:03:05.439Z,100170.69
2022-09-18T04:05:33.283Z,100182.81
2022-09-18T04:08:01.111Z,100179.34
2022-09-18T04:10:28.899Z,100179.28
2022-09-18T04:12:56.666Z,100181.09
2022-09-18T04:15:28.542Z,100180.97
2022-09-18T04:17:56.329Z,100188.00
2022-09-18T04:20:24.094Z,100190.47
2022-09-18T04:22:52.010Z,100193.13
2022-09-18T04:25:19.781Z,100191.44
2022-09-18T04:27:47.555Z,100194.84
2022-09-18T04:30:15.651Z,100197.38
2022-09-18T04:32:45.649Z,100196.59
2022-09-18T04:35:14.143Z,100200.03
2022-09-18T04:37:44.473Z,100197.28
2022-09-18T04:40:12.888Z,100196.44
2022-09-18T04:42:40.855Z,100212.91
2022-09-18T04:45:10.905Z,100211.94
2022-09-18T04:47:38.767Z,100215.41
2022-09-18T04:50:11.021Z,100215.56
2022-09-18T04:52:38.883Z,100213.75
2022-09-18T04:55:07.935Z,100213.78
2022-09-18T04:57:35.767Z,100211.16
2022-09-18T05:00:06.607Z,100212.53
2022-09-18T05:02:34.413Z,100210.06
2022-09-18T05:05:02.202Z,100217.00
2022-09-18T05:07:32.058Z,100216.00
2022-09-18T05:10:00.349Z,100217.91
2022-09-18T05:12:28.107Z,100223.75
2022-09-18T05:14:55.917Z,100214.91
2022-09-18T05:17:23.736Z,100218.19
2022-09-18T05:19:51.525Z,100217.28
2022-09-18T05:22:19.404Z,100216.47
2022-09-18T05:24:48.489Z,100212.31
2022-09-18T05:27:16.428Z,100227.16
2022-09-18T05:29:44.352Z,100221.50
2022-09-18T05:32:12.300Z,100227.03
2022-09-18T05:34:40.129Z,100237.66
2022-09-18T05:37:07.905Z,100235.13
2022-09-18T05:39:35.674Z,100245.59
2022-09-18T05:42:05.148Z,100249.84
2022-09-18T05:44:32.958Z,100254.19
2022-09-18T05:47:01.258Z,100250.78
2022-09-18T05:49:29.706Z,100254.22
2022-09-18T05:51:57.472Z,100255.13
2022-09-18T05:54:25.255Z,100260.16
2022-09-18T05:56:54.644Z,100260.88
2022-09-18T05:59:23.727Z,100260.19
2022-09-18T06:01:51.544Z,100258.53
2022-09-18T06:04:19.367Z,100262.81
2022-09-18T06:06:47.666Z,100257.38
2022-09-18T06:09:15.664Z,100264.22
2022-09-18T06:11:43.489Z,100259.94
2022-09-18T06:14:11.289Z,100266.03
2022-09-18T06:16:42.481Z,100260.75
2022-09-18T06:19:11.153Z,100263.41
2022-09-18T06:21:38.996Z,100265.25
2022-09-18T06:24:07.036Z,100257.47
2022-09-18T06:26:34.854Z,100266.94
2022-09-18T06:29:02.892Z,100264.31
2022-09-18T06:31:30.730Z,100272.19
2022-09-18T06:33:59.918Z,100272.06
2022-09-18T06:36:27.727Z,100278.00
2022-09-18T06:38:55.514Z,100266.59
2022-09-18T06:41:24.993Z,100270.25
2022-09-18T06:43:52.844Z,100272.75
2022-09-18T06:46:20.785Z,100267.56
2022-09-18T06:48:50.503Z,100263.47
2022-09-18T06:51:19.658Z,100279.72
2022-09-18T06:53:47.440Z,100273.88
2022-09-18T06:56:15.274Z,100267.78
2022-09-18T06:58:43.015Z,100284.06
2022-09-18T07:01:10.960Z,100285.09
2022-09-18T07:03:38.772Z,100288.47
2022-09-18T07:06:09.827Z,100283.28
2022-09-18T07:08:38.968Z,100285.75
2022-09-18T07:11:06.801Z,100285.69
2022-09-18T07:13:37.493Z,100285.00
2022-09-18T07:16:05.974Z,100285.75
2022-09-18T07:18:33.869Z,100290.81
2022-09-18T07:21:02.386Z,100299.75
2022-09-18T07:23:32.944Z,100288.25
2022-09-18T07:26:03.260Z,100289.19
2022-09-18T07:28:31.898Z,100290.97
2022-09-18T07:31:04.725Z,100295.38
2022-09-18T07:33:33.290Z,100295.22
2022-09-18T07:36:01.803Z,100283.09
2022-09-18T07:38:30.043Z,100290.06
2022-09-18T07:40:58.509Z,100292.81
2022-09-18T07:43:27.677Z,100289.13
2022-09-18T07:45:55.427Z,100298.75
2022-09-18T07:48:24.479Z,100297.69
2022-09-18T07:50:52.661Z,100297.66
2022-09-18T07:53:21.275Z,100299.63
2022-09-18T07:55:49.067Z,100298.72
2022-09-18T07:58:17.256Z,100290.91
2022-09-18T08:00:46.383Z,100308.19
2022-09-18T08:03:15.255Z,100302.94
2022-09-18T08:05:43.382Z,100297.91
2022-09-18T08:08:13.915Z,100300.81
2022-09-18T08:10:44.497Z,100301.94
2022-09-18T08:13:12.840Z,100303.41
2022-09-18T08:15:43.497Z,100282.63
2022-09-18T08:18:12.761Z,100290.66
2022-09-18T08:20:41.598Z,100290.34
2022-09-18T08:23:11.393Z,100289.31
2022-09-18T08:25:41.201Z,100287.03
2022-09-18T08:28:09.091Z,100287.84
2022-09-18T08:30:37.227Z,100284.34
2022-09-18T08:33:07.715Z,100284.19
2022-09-18T08:35:37.332Z,100284.91
2022-09-18T08:38:05.683Z,100289.56
2022-09-18T08:41:05.266Z,100281.03
2022-09-18T08:43:52.907Z,100272.69
2022-09-18T08:46:29.378Z,100283.28
2022-09-18T08:49:16.844Z,100290.13
2022-09-18T08:51:57.567Z,100287.38
2022-09-18T08:54:40.784Z,100288.00
2022-09-18T08:57:18.931Z,100293.16
2022-09-18T08:59:52.492Z,100289.53
2022-09-18T09:02:37.843Z,100291.31
2022-09-18T09:05:13.053Z,100295.28
2022-09-18T09:08:18.341Z,100288.09
2022-09-18T09:10:57.792Z,100290.06
2022-09-18T09:14:30.353Z,100285.53
2022-09-18T09:17:22.163Z,100286.59
2022-09-18T09:19:55.390Z,100274.78
2022-09-18T09:22:39.397Z,100272.50
2022-09-18T09:25:21.472Z,100275.44
2022-09-18T09:28:02.972Z,100280.81
2022-09-18T09:30:36.071Z,100278.09
2022-09-18T09:33:17.428Z,100275.81
2022-09-18T09:35:50.728Z,100266.06
2022-09-18T09:38:38.744Z,100273.97
2022-09-18T09:41:21.540Z,100279.00
2022-09-18T09:44:04.869Z,100274.75
2022-09-18T09:46:52.235Z,100267.00
2022-09-18T09:49:26.702Z,100266.56
2022-09-18T09:52:09.081Z,100267.47
2022-09-18T09:54:37.367Z,100274.59
2022-09-18T09:57:22.162Z,100273.25
2022-09-18T10:00:05.483Z,100282.81
2022-09-18T10:02:51.072Z,100263.31
2022-09-18T10:05:29.307Z,100262.41
2022-09-18T10:08:10.314Z,100264.97
2022-09-18T10:10:45.986Z,100263.59
2022-09-18T10:13:20.475Z,100263.59
2022-09-18T10:15:52.290Z,100262.56
2022-09-18T10:18:26.163Z,100246.44
2022-09-18T10:21:03.763Z,100240.00
2022-09-18T10:23:38.805Z,100247.19
2022-09-18T10:26:07.212Z,100254.22
2022-09-18T10:28:36.377Z,100260.72
2022-09-18T10:31:06.878Z,100271.03
2022-09-18T10:33:38.728Z,100263.81
2022-09-18T10:36:25.779Z,100269.78
2022-09-18T10:38:53.753Z,100269.06
2022-09-18T10:41:39.292Z,100263.53
2022-09-18T10:44:27.964Z,100263.09
2022-09-18T10:47:01.693Z,100261.66
2022-09-18T10:49:33.931Z,100255.03
2022-09-18T10:52:32.583Z,100265.31
2022-09-18T10:55:17.349Z,100253.91
2022-09-18T10:58:03.279Z,100256.56
2022-09-18T11:00:46.465Z,100234.13
2022-09-18T11:03:25.037Z,100231.28
2022-09-18T11:05:58.863Z,100226.72
2022-09-18T11:08:31.069Z,100220.94
2022-09-18T11:11:05.427Z,100220.44
2022-09-18T11:13:37.426Z,100225.72
2022-09-18T11:16:07.682Z,100226.03
2022-09-18T11:18:35.466Z,100255.00
2022-09-18T11:21:07.526Z,100252.34
2022-09-18T11:23:37.541Z,100257.16
2022-09-18T11:26:19.337Z,100249.88
2022-09-18T11:29:05.903Z,100244.38
2022-09-18T11:31:47.267Z,100241.19
2022-09-18T11:34:24.651Z,100249.75
2022-09-18T11:36:57.560Z,100244.28
2022-09-18T11:39:31.656Z,100239.22
2022-09-18T11:42:00.239Z,100226.97
2022-09-18T11:44:32.641Z,100223.97
2022-09-18T11:47:28.231Z,100222.53
2022-09-18T11:50:09.514Z,100222.19
2022-09-18T11:52:43.706Z,100215.72
2022-09-18T11:55:25.623Z,100208.75
2022-09-18T11:57:59.396Z,100207.94
2022-09-18T12:00:33.098Z,100208.34
2022-09-18T12:03:18.389Z,100198.00
2022-09-18T12:05:54.914Z,100197.59
2022-09-18T12:08:42.297Z,100219.13
2022-09-18T12:11:21.887Z,100245.78
2022-09-18T12:14:03.851Z,100238.78
2022-09-18T12:16:50.537Z,100242.16
2022-09-18T12:19:29.641Z,100225.19
2022-09-18T12:22:04.343Z,100215.34
2022-09-18T12:24:32.252Z,100205.69
2022-09-18T12:27:27.844Z,100210.22
2022-09-18T12:30:09.863Z,100199.97
2022-09-18T12:33:13.632Z,100192.81
2022-09-18T12:36:33.646Z,100190.03
2022-09-18T12:39:19.640Z,100194.53
2022-09-18T12:42:04.675Z,100186.19
2022-09-18T12:45:14.624Z,100182.56
2022-09-18T12:48:04.673Z,100175.72
2022-09-18T12:50:54.243Z,100176.63
2022-09-18T12:53:44.707Z,100171.44
2022-09-18T12:56:34.413Z,100173.41
2022-09-18T12:59:48.210Z,100166.06
2022-09-18T13:02:28.909Z,100171.50
2022-09-18T13:05:04.497Z,100187.47
2022-09-18T13:07:42.139Z,100186.16
2022-09-18T13:10:20.683Z,100175.66
2022-09-18T13:12:59.330Z,100187.13
2022-09-18T13:15:33.187Z,100197.38
2022-09-18T13:18:18.454Z,100193.09
2022-09-18T13:20:47.132Z,100194.19
2022-09-18T13:23:21.688Z,100181.75
2022-09-18T13:25:52.056Z,100192.91
2022-09-18T13:28:23.066Z,100194.00
2022-09-18T13:31:23.505Z,100200.94
2022-09-18T13:33:55.879Z,100194.16
2022-09-18T13:36:26.939Z,100189.06
2022-09-18T13:39:00.745Z,100190.75
2022-09-18T13:41:30.255Z,100179.34
2022-09-18T13:44:00.543Z,100192.09
2022-09-18T13:46:37.879Z,100194.78
2022-09-18T13:49:20.585Z,100182.78
2022-09-18T13:51:48.601Z,100184.38
2022-09-18T13:54:29.066Z,100185.78
2022-09-18T13:57:22.142Z,100176.81
2022-09-18T13:59:55.527Z,100177.53
2022-09-18T14:02:28.362Z,100182.19
2022-09-18T14:05:31.916Z,100179.50
2022-09-18T14:08:14.844Z,100178.88
2022-09-18T14:11:19.259Z,100172.66
2022-09-18T14:13:53.919Z,100179.53
2022-09-18T14:16:33.145Z,100169.41
2022-09-18T14:19:27.739Z,100169.31
2022-09-18T14:21:55.691Z,100170.88
2022-09-18T14:25:01.805Z,100174.03
2022-09-18T14:27:56.142Z,100174.53
2022-09-18T14:30:26.775Z,100173.34
2022-09-18T14:33:06.479Z,100166.16
2022-09-18T14:35:47.949Z,100169.47
2022-09-18T14:38:27.689Z,100182.09
2022-09-18T14:41:05.620Z,100173.41
2022-09-18T14:43:34.822Z,100159.97
2022-09-18T14:46:03.849Z,100169.72
2022-09-18T14:48:38.251Z,100166.84
2022-09-18T14:51:17.360Z,100165.50
2022-09-18T14:53:49.878Z,100171.94
2022-09-18T14:56:24.556Z,100166.41
2022-09-18T14:58:54.146Z,100166.03
2022-09-18T15:01:26.396Z,100179.38
2022-09-18T15:03:57.115Z,100175.94
2022-09-18T15:06:35.918Z,100176.81
2022-09-18T15:09:07.439Z,100170.25
2022-09-18T15:11:52.464Z,100173.81
2022-09-18T15:14:37.690Z,100167.31
2022-09-18T15:17:20.583Z,100158.84
2022-09-18T15:20:00.472Z,100148.00
2022-09-18T15:22:30.535Z,100162.47
2022-09-18T15:25:01.851Z,100147.72
2022-09-18T15:27:31.989Z,100153.34
2022-09-18T15:30:08.013Z,100157.47
2022-09-18T15:32:40.516Z,100156.44
2022-09-18T15:35:19.670Z,100155.44
2022-09-18T15:37:54.066Z,100145.56
2022-09-18T15:40:29.816Z,100151.66
2022-09-18T15:43:01.835Z,100150.13
2022-09-18T15:45:33.415Z,100153.59
2022-09-18T15:48:35.223Z,100144.69
2022-09-18T15:51:09.630Z,100147.59
2022-09-18T15:53:38.527Z,100145.63
2022-09-18T15:56:18.848Z,100144.06
2022-09-18T15:58:54.166Z,100150.88
2022-09-18T16:01:28.436Z,100141.28
2022-09-18T16:04:09.148Z,100145.56
2022-09-18T16:06:44.540Z,100146.41
2022-09-18T16:09:30.687Z,100146.19
2022-09-18T16:12:01.657Z,100142.72
2022-09-18T16:14:50.044Z,100144.06
2022-09-18T16:17:54.967Z,100138.81
2022-09-18T16:20:34.770Z,100141.81
2022-09-18T16:23:24.208Z,100145.56
2022-09-18T16:26:07.280Z,100148.66
2022-09-18T16:28:40.703Z,100140.75
2022-09-18T16:31:08.597Z,100149.81
2022-09-18T16:33:50.238Z,100152.16
2022-09-18T16:36:28.307Z,100151.16
2022-09-18T16:38:56.869Z,100147.59
2022-09-18T16:41:25.020Z,100157.69
2022-09-18T16:43:53.857Z,100154.50
2022-09-18T16:46:28.193Z,100158.41
2022-09-18T16:48:58.045Z,100169.19
2022-09-18T16:51:26.844Z,100174.22
2022-09-18T16:53:54.886Z,100179.56
2022-09-18T16:56:28.754Z,100163.09
2022-09-18T16:58:58.425Z,100163.22
2022-09-18T17:01:26.546Z,100163.09
2022-09-18T17:03:54.633Z,100160.75
2022-09-18T17:06:23.700Z,100159.59
2022-09-18T17:08:51.510Z,100144.97
2022-09-18T17:11:19.660Z,100153.72
2022-09-18T17:13:47.429Z,100154.56
2022-09-18T17:16:30.322Z,100158.13
2022-09-18T17:19:03.784Z,100166.09
2022-09-18T17:21:32.932Z,100165.25
2022-09-18T17:24:02.035Z,100162.63
2022-09-18T17:26:30.990Z,100162.09
2022-09-18T17:28:59.652Z,100158.56
2022-09-18T17:31:28.494Z,100167.13
2022-09-18T17:33:57.283Z,100167.97
2022-09-18T17:36:25.408Z,100162.03
2022-09-18T17:38:54.738Z,100165.38
2022-09-18T17:41:22.800Z,100169.75
2022-09-18T17:43:53.569Z,100174.13
2022-09-18T17:46:21.970Z,100178.22
2022-09-18T17:48:50.030Z,100175.69
2022-09-18T17:51:19.843Z,100195.69
2022-09-18T17:53:50.028Z,100208.69
2022-09-18T17:56:21.331Z,100203.63
2022-09-18T17:58:49.375Z,100198.47
2022-09-18T18:01:21.133Z,100206.00
2022-09-18T18:03:49.488Z,100198.84
2022-09-18T18:06:21.609Z,100202.94
2022-09-18T18:08:50.954Z,100194.75
2022-09-18T18:11:23.012Z,100188.78
2022-09-18T18:13:53.344Z,100184.03
2022-09-18T18:16:24.902Z,100189.38
2022-09-18T18:18:55.527Z,100196.22
2022-09-18T18:21:24.519Z,100194.06
2022-09-18T18:23:56.927Z,100204.69
2022-09-18T18:26:28.835Z,100192.41
2022-09-18T18:28:56.928Z,100189.03
2022-09-18T18:31:26.344Z,100184.09
2022-09-18T18:33:56.278Z,100195.97
2022-09-18T18:36:27.229Z,100195.78
2022-09-18T18:38:57.511Z,100199.22
2022-09-18T18:41:29.037Z,100199.41
2022-09-18T18:44:01.893Z,100189.88
2022-09-18T18:46:35.959Z,100196.72
2022-09-18T18:49:10.078Z,100192.19
2022-09-18T18:51:42.958Z,100197.50
2022-09-18T18:54:11.746Z,100196.09
2022-09-18T18:56:41.564Z,100192.53
2022-09-18T18:59:13.954Z,100196.69
2022-09-18T19:01:43.242Z,100195.78
2022-09-18T19:04:13.766Z,100195.81
2022-09-18T19:06:44.849Z,100199.28
2022-09-18T19:09:20.056Z,100199.16
2022-09-18T19:11:52.805Z,100199.19
2022-09-18T19:14:23.883Z,100203.31
2022-09-18T19:16:53.251Z,100201.31
2022-09-18T19:19:24.572Z,100209.25
2022-09-18T19:21:53.666Z,100197.69
2022-09-18T19:24:22.692Z,100202.56
2022-09-18T19:26:51.808Z,100200.72
2022-09-18T19:29:22.393Z,100197.22
2022-09-18T19:31:51.473Z,100203.56
2022-09-18T19:34:22.084Z,100202.41
2022-09-18T19:36:51.762Z,100207.56
2022-09-18T19:39:24.398Z,100207.03
2022-09-18T19:41:59.988Z,100203.41
2022-09-18T19:44:32.690Z,100198.25
2022-09-18T19:47:04.364Z,100204.41
2022-09-18T19:49:37.155Z,100201.00
2022-09-18T19:52:15.091Z,100199.09
2022-09-18T19:54:42.883Z,100199.47
2022-09-18T19:57:12.939Z,100196.84
2022-09-18T19:59:40.800Z,100200.41
2022-09-18T20:02:09.303Z,100198.81
2022-09-18T20:04:40.771Z,100190.16
2022-09-18T20:07:09.445Z,100192.75
2022-09-18T20:09:37.720Z,100197.50
2022-09-18T20:12:05.824Z,100192.09
2022-09-18T20:14:35.051Z,100201.16
2022-09-18T20:17:02.926Z,100203.81
2022-09-18T20:19:30.825Z,100197.84
2022-09-18T20:22:02.330Z,100205.41
2022-09-18T20:24:30.504Z,100212.38
2022-09-18T20:26:58.812Z,100203.19
2022-09-18T20:29:27.427Z,100207.34
2022-09-18T20:31:58.053Z,100202.09
2022-09-18T20:34:26.183Z,100210.72
2022-09-18T20:36:54.866Z,100209.53
2022-09-18T20:39:22.909Z,100202.44
2022-09-18T20:41:51.171Z,100203.63
2022-09-18T20:44:19.904Z,100208.47
2022-09-18T20:46:50.435Z,100211.16
2022-09-18T20:49:19.674Z,100205.78
2022-09-18T20:51:47.492Z,100212.78
2022-09-18T20:54:19.228Z,100209.44
2022-09-18T20:56:47.327Z,100212.03
2022-09-18T20:59:18.386Z,100210.47
2022-09-18T21:01:47.826Z,100213.81
2022-09-18T21:04:20.142Z,100218.06
2022-09-18T21:06:56.010Z,100214.22
2022-09-18T21:09:26.712Z,100215.84
2022-09-18T21:11:56.706Z,100214.13
2022-09-18T21:14:25.522Z,100211.44
2022-09-18T21:16:54.398Z,100218.16
2022-09-18T21:19:26.041Z,100212.16
2022-09-18T21:21:54.017Z,100217.41
2022-09-18T21:24:22.334Z,100212.88
2022-09-18T21:26:51.385Z,100218.97
2022-09-18T21:29:22.662Z,100213.97
2022-09-18T21:31:53.574Z,100207.09
2022-09-18T21:34:26.547Z,100207.00
2022-09-18T21:36:57.678Z,100207.97
2022-09-18T21:39:28.115Z,100203.63
2022-09-18T21:41:56.899Z,100208.88
2022-09-18T21:44:27.787Z,100211.63
2022-09-18T21:46:57.166Z,100206.19
2022-09-18T21:49:27.721Z,100207.09
2022-09-18T21:51:57.588Z,100218.78
2022-09-18T21:54:27.007Z,100205.44
2022-09-18T21:56:56.434Z,100201.97
2022-09-18T21:59:26.808Z,100204.53
2022-09-18T22:01:55.512Z,100208.84
2022-09-18T22:04:26.258Z,100204.56
2022-09-18T22:06:58.679Z,100209.63
2022-09-18T22:09:29.659Z,100207.91
2022-09-18T22:11:59.241Z,100209.84
2022-09-18T22:14:31.328Z,100215.00
2022-09-18T22:17:00.888Z,100201.03
2022-09-18T22:19:29.663Z,100213.88
2022-09-18T22:21:58.793Z,100212.38
2022-09-18T22:24:29.230Z,100214.88
2022-09-18T22:27:00.676Z,100214.06
2022-09-18T22:29:31.371Z,100216.59
2022-09-18T22:32:00.336Z,100215.63
2022-09-18T22:34:31.386Z,100220.28
2022-09-18T22:37:02.274Z,100227.13
2022-09-18T22:39:30.781Z,100214.91
2022-09-18T22:41:58.924Z,100230.84
2022-09-18T22:44:27.092Z,100230.81
2022-09-18T22:46:55.228Z,100230.78
2022-09-18T22:49:25.073Z,100230.69
2022-09-18T22:51:53.201Z,100228.91
2022-09-18T22:54:26.397Z,100237.59
2022-09-18T22:56:55.759Z,100232.50
2022-09-18T22:59:27.163Z,100243.75
2022-09-18T23:01:59.398Z,100237.00
2022-09-18T23:04:31.566Z,100240.34
2022-09-18T23:09:19.081Z,100240.31
2022-09-18T23:11:50.519Z,100248.09
2022-09-18T23:14:22.728Z,100249.03
2022-09-18T23:16:51.852Z,100255.09
2022-09-18T23:19:22.780Z,100249.91
2022-09-18T23:22:35.812Z,100255.94
2022-09-18T23:25:03.226Z,100254.25
2022-09-18T23:27:30.639Z,100255.09
2022-09-18T23:29:58.060Z,100246.44
2022-09-18T23:32:25.676Z,100257.59
2022-09-18T23:34:54.507Z,100256.81
2022-09-18T23:37:21.891Z,100256.69
2022-09-18T23:39:50.615Z,100253.19
2022-09-18T23:42:18.009Z,100255.91
2022-09-18T23:44:45.423Z,100252.50
2022-09-18T23:47:12.784Z,100251.66
2022-09-18T23:49:40.215Z,100258.53
2022-09-18T23:52:07.615Z,100260.25
2022-09-18T23:54:35.002Z,100267.09
2022-09-18T23:57:03.730Z,100258.44
2022-09-18T23:59:31.261Z,100259.28
